sensor_id;sensor_type;location;lat;lon;timestamp;P1;durP1;ratioP1;P2;durP2;ratioP2
23952;SDS011;12163;49.316;6.092;2022-10-29T00:02:00;29.00;;;7.07;;
23952;SDS011;12163;49.316;6.092;2022-10-29T00:04:27;27.85;;;6.85;;
23952;SDS011;12163;49.316;6.092;2022-10-29T00:06:53;27.98;;;6.80;;
23952;SDS011;12163;49.316;6.092;2022-10-29T00:09:20;27.38;;;6.28;;
23952;SDS011;12163;49.316;6.092;2022-10-29T00:11:46;25.38;;;6.82;;
23952;SDS011;12163;49.316;6.092;2022-10-29T00:14:13;19.52;;;6.70;;
23952;SDS011;12163;49.316;6.092;2022-10-29T00:16:41;21.67;;;6.47;;
23952;SDS011;12163;49.316;6.092;2022-10-29T00:19:08;22.42;;;6.82;;
23952;SDS011;12163;49.316;6.092;2022-10-29T00:21:34;28.02;;;7.10;;
23952;SDS011;12163;49.316;6.092;2022-10-29T00:24:03;19.38;;;6.35;;
23952;SDS011;12163;49.316;6.092;2022-10-29T00:26:30;25.75;;;6.88;;
23952;SDS011;12163;49.316;6.092;2022-10-29T00:28:56;24.30;;;6.50;;
23952;SDS011;12163;49.316;6.092;2022-10-29T00:31:23;26.23;;;5.88;;
23952;SDS011;12163;49.316;6.092;2022-10-29T00:33:50;25.80;;;6.30;;
23952;SDS011;12163;49.316;6.092;2022-10-29T00:36:21;24.63;;;6.80;;
23952;SDS011;12163;49.316;6.092;2022-10-29T00:38:52;19.98;;;6.00;;
23952;SDS011;12163;49.316;6.092;2022-10-29T00:41:20;22.23;;;6.72;;
23952;SDS011;12163;49.316;6.092;2022-10-29T00:46:58;28.40;;;6.95;;
23952;SDS011;12163;49.316;6.092;2022-10-29T00:49:36;28.05;;;6.90;;
23952;SDS011;12163;49.316;6.092;2022-10-29T00:52:07;26.08;;;7.10;;
23952;SDS011;12163;49.316;6.092;2022-10-29T00:54:35;15.90;;;6.07;;
23952;SDS011;12163;49.316;6.092;2022-10-29T00:57:07;19.63;;;6.78;;
23952;SDS011;12163;49.316;6.092;2022-10-29T00:59:37;23.02;;;6.75;;
23952;SDS011;12163;49.316;6.092;2022-10-29T01:02:05;35.60;;;7.18;;
23952;SDS011;12163;49.316;6.092;2022-10-29T01:04:32;27.83;;;6.65;;
23952;SDS011;12163;49.316;6.092;2022-10-29T01:07:00;28.83;;;7.03;;
23952;SDS011;12163;49.316;6.092;2022-10-29T01:09:27;23.73;;;5.82;;
23952;SDS011;12163;49.316;6.092;2022-10-29T01:17:40;27.85;;;6.45;;
23952;SDS011;12163;49.316;6.092;2022-10-29T01:23:15;21.23;;;6.70;;
23952;SDS011;12163;49.316;6.092;2022-10-29T01:28:41;33.13;;;7.05;;
23952;SDS011;12163;49.316;6.092;2022-10-29T01:40:16;19.80;;;5.97;;
23952;SDS011;12163;49.316;6.092;2022-10-29T01:43:05;25.10;;;6.38;;
23952;SDS011;12163;49.316;6.092;2022-10-29T01:45:47;23.70;;;6.32;;
23952;SDS011;12163;49.316;6.092;2022-10-29T01:48:21;26.98;;;6.78;;
23952;SDS011;12163;49.316;6.092;2022-10-29T01:50:59;27.33;;;8.02;;
23952;SDS011;12163;49.316;6.092;2022-10-29T01:53:30;18.83;;;6.75;;
23952;SDS011;12163;49.316;6.092;2022-10-29T01:56:01;23.60;;;6.60;;
23952;SDS011;12163;49.316;6.092;2022-10-29T01:58:27;20.45;;;6.75;;
23952;SDS011;12163;49.316;6.092;2022-10-29T02:01:00;25.30;;;6.47;;
23952;SDS011;12163;49.316;6.092;2022-10-29T02:07:03;26.67;;;6.82;;
23952;SDS011;12163;49.316;6.092;2022-10-29T02:14:06;20.55;;;6.90;;
23952;SDS011;12163;49.316;6.092;2022-10-29T02:16:40;18.67;;;6.20;;
23952;SDS011;12163;49.316;6.092;2022-10-29T02:19:07;30.50;;;7.90;;
23952;SDS011;12163;49.316;6.092;2022-10-29T02:21:34;34.95;;;7.47;;
23952;SDS011;12163;49.316;6.092;2022-10-29T02:24:00;29.67;;;7.20;;
23952;SDS011;12163;49.316;6.092;2022-10-29T02:26:27;21.02;;;7.15;;
23952;SDS011;12163;49.316;6.092;2022-10-29T02:28:53;25.88;;;6.72;;
23952;SDS011;12163;49.316;6.092;2022-10-29T02:31:20;33.85;;;7.32;;
23952;SDS011;12163;49.316;6.092;2022-10-29T02:33:47;28.23;;;8.20;;
23952;SDS011;12163;49.316;6.092;2022-10-29T02:36:13;23.10;;;8.00;;
23952;SDS011;12163;49.316;6.092;2022-10-29T02:38:40;31.55;;;7.85;;
23952;SDS011;12163;49.316;6.092;2022-10-29T02:41:06;23.95;;;6.95;;
23952;SDS011;12163;49.316;6.092;2022-10-29T02:43:33;25.27;;;7.18;;
23952;SDS011;12163;49.316;6.092;2022-10-29T02:48:46;21.98;;;6.97;;
23952;SDS011;12163;49.316;6.092;2022-10-29T02:51:13;21.30;;;7.28;;
23952;SDS011;12163;49.316;6.092;2022-10-29T02:53:40;25.85;;;6.90;;
23952;SDS011;12163;49.316;6.092;2022-10-29T02:56:07;32.70;;;7.85;;
23952;SDS011;12163;49.316;6.092;2022-10-29T02:58:34;24.40;;;8.25;;
23952;SDS011;12163;49.316;6.092;2022-10-29T03:01:01;25.83;;;7.63;;
23952;SDS011;12163;49.316;6.092;2022-10-29T03:03:28;31.83;;;9.23;;
23952;SDS011;12163;49.316;6.092;2022-10-29T03:05:55;23.60;;;7.60;;
23952;SDS011;12163;49.316;6.092;2022-10-29T03:08:21;26.58;;;7.82;;
23952;SDS011;12163;49.316;6.092;2022-10-29T03:10:48;34.78;;;8.88;;
23952;SDS011;12163;49.316;6.092;2022-10-29T03:13:14;25.67;;;7.85;;
23952;SDS011;12163;49.316;6.092;2022-10-29T03:15:44;39.17;;;9.38;;
23952;SDS011;12163;49.316;6.092;2022-10-29T03:18:11;34.05;;;8.50;;
23952;SDS011;12163;49.316;6.092;2022-10-29T03:20:38;34.47;;;9.93;;
23952;SDS011;12163;49.316;6.092;2022-10-29T03:23:04;27.38;;;9.35;;
23952;SDS011;12163;49.316;6.092;2022-10-29T03:25:31;29.75;;;8.93;;
23952;SDS011;12163;49.316;6.092;2022-10-29T03:27:57;23.40;;;9.88;;
23952;SDS011;12163;49.316;6.092;2022-10-29T03:30:24;31.75;;;10.45;;
23952;SDS011;12163;49.316;6.092;2022-10-29T03:32:51;30.48;;;9.85;;
23952;SDS011;12163;49.316;6.092;2022-10-29T03:35:17;24.27;;;9.82;;
23952;SDS011;12163;49.316;6.092;2022-10-29T03:37:44;34.90;;;10.20;;
23952;SDS011;12163;49.316;6.092;2022-10-29T03:40:14;33.80;;;10.55;;
23952;SDS011;12163;49.316;6.092;2022-10-29T03:42:41;33.80;;;10.05;;
23952;SDS011;12163;49.316;6.092;2022-10-29T03:45:07;29.90;;;10.75;;
23952;SDS011;12163;49.316;6.092;2022-10-29T03:47:35;39.25;;;10.80;;
23952;SDS011;12163;49.316;6.092;2022-10-29T03:50:02;48.92;;;11.52;;
23952;SDS011;12163;49.316;6.092;2022-10-29T03:52:29;38.92;;;10.68;;
23952;SDS011;12163;49.316;6.092;2022-10-29T03:54:56;34.10;;;10.98;;
23952;SDS011;12163;49.316;6.092;2022-10-29T03:57:22;32.15;;;10.85;;
23952;SDS011;12163;49.316;6.092;2022-10-29T03:59:49;31.80;;;10.52;;
23952;SDS011;12163;49.316;6.092;2022-10-29T04:02:18;42.08;;;11.02;;
23952;SDS011;12163;49.316;6.092;2022-10-29T04:04:45;39.00;;;11.60;;
23952;SDS011;12163;49.316;6.092;2022-10-29T04:07:11;37.38;;;11.55;;
23952;SDS011;12163;49.316;6.092;2022-10-29T04:09:38;31.40;;;10.95;;
23952;SDS011;12163;49.316;6.092;2022-10-29T04:12:05;34.03;;;11.25;;
23952;SDS011;12163;49.316;6.092;2022-10-29T04:14:32;30.55;;;11.40;;
23952;SDS011;12163;49.316;6.092;2022-10-29T04:16:58;33.47;;;11.95;;
23952;SDS011;12163;49.316;6.092;2022-10-29T04:19:25;30.45;;;11.75;;
23952;SDS011;12163;49.316;6.092;2022-10-29T04:21:52;34.42;;;12.10;;
23952;SDS011;12163;49.316;6.092;2022-10-29T04:24:38;39.15;;;11.63;;
23952;SDS011;12163;49.316;6.092;2022-10-29T04:27:25;33.53;;;10.77;;
23952;SDS011;12163;49.316;6.092;2022-10-29T04:30:13;35.75;;;11.85;;
23952;SDS011;12163;49.316;6.092;2022-10-29T04:32:40;30.15;;;10.90;;
23952;SDS011;12163;49.316;6.092;2022-10-29T04:35:06;45.03;;;11.90;;
23952;SDS011;12163;49.316;6.092;2022-10-29T04:37:33;36.08;;;12.38;;
23952;SDS011;12163;49.316;6.092;2022-10-29T04:39:59;31.98;;;12.02;;
23952;SDS011;12163;49.316;6.092;2022-10-29T04:42:26;39.58;;;11.93;;
23952;SDS011;12163;49.316;6.092;2022-10-29T04:44:53;39.95;;;13.02;;
23952;SDS011;12163;49.316;6.092;2022-10-29T04:47:19;32.30;;;11.65;;
23952;SDS011;12163;49.316;6.092;2022-10-29T04:49:46;34.42;;;12.27;;
23952;SDS011;12163;49.316;6.092;2022-10-29T04:52:12;37.50;;;12.30;;
23952;SDS011;12163;49.316;6.092;2022-10-29T04:54:39;30.30;;;12.73;;
23952;SDS011;12163;49.316;6.092;2022-10-29T04:57:05;27.45;;;11.40;;
23952;SDS011;12163;49.316;6.092;2022-10-29T04:59:32;33.10;;;13.95;;
23952;SDS011;12163;49.316;6.092;2022-10-29T05:01:58;27.88;;;9.43;;
23952;SDS011;12163;49.316;6.092;2022-10-29T05:04:25;23.52;;;9.02;;
23952;SDS011;12163;49.316;6.092;2022-10-29T05:06:54;27.27;;;8.45;;
23952;SDS011;12163;49.316;6.092;2022-10-29T05:09:21;28.55;;;8.98;;
23952;SDS011;12163;49.316;6.092;2022-10-29T05:11:47;28.63;;;10.13;;
23952;SDS011;12163;49.316;6.092;2022-10-29T05:14:14;22.98;;;10.32;;
23952;SDS011;12163;49.316;6.092;2022-10-29T05:16:40;32.33;;;9.80;;
23952;SDS011;12163;49.316;6.092;2022-10-29T05:19:07;36.60;;;11.50;;
23952;SDS011;12163;49.316;6.092;2022-10-29T05:21:33;27.10;;;10.20;;
23952;SDS011;12163;49.316;6.092;2022-10-29T05:24:00;28.00;;;10.13;;
23952;SDS011;12163;49.316;6.092;2022-10-29T05:26:28;29.08;;;11.23;;
23952;SDS011;12163;49.316;6.092;2022-10-29T05:28:57;33.70;;;11.52;;
23952;SDS011;12163;49.316;6.092;2022-10-29T05:31:23;30.05;;;11.65;;
23952;SDS011;12163;49.316;6.092;2022-10-29T05:33:50;28.35;;;10.73;;
23952;SDS011;12163;49.316;6.092;2022-10-29T05:36:21;28.80;;;10.25;;
23952;SDS011;12163;49.316;6.092;2022-10-29T05:38:48;26.92;;;10.52;;
23952;SDS011;12163;49.316;6.092;2022-10-29T05:41:14;18.98;;;8.93;;
23952;SDS011;12163;49.316;6.092;2022-10-29T05:43:41;30.45;;;10.30;;
23952;SDS011;12163;49.316;6.092;2022-10-29T05:46:07;33.08;;;10.38;;
23952;SDS011;12163;49.316;6.092;2022-10-29T05:48:34;29.75;;;10.93;;
23952;SDS011;12163;49.316;6.092;2022-10-29T05:51:00;29.50;;;10.13;;
23952;SDS011;12163;49.316;6.092;2022-10-29T05:53:27;31.55;;;10.63;;
23952;SDS011;12163;49.316;6.092;2022-10-29T05:55:54;29.77;;;11.23;;
23952;SDS011;12163;49.316;6.092;2022-10-29T05:58:20;27.08;;;10.32;;
23952;SDS011;12163;49.316;6.092;2022-10-29T06:00:47;26.73;;;9.60;;
23952;SDS011;12163;49.316;6.092;2022-10-29T06:05:41;26.85;;;11.30;;
23952;SDS011;12163;49.316;6.092;2022-10-29T06:08:08;34.13;;;11.88;;
23952;SDS011;12163;49.316;6.092;2022-10-29T06:10:35;31.17;;;11.00;;
23952;SDS011;12163;49.316;6.092;2022-10-29T06:13:08;27.45;;;10.80;;
23952;SDS011;12163;49.316;6.092;2022-10-29T06:15:38;31.20;;;9.88;;
23952;SDS011;12163;49.316;6.092;2022-10-29T06:18:04;26.63;;;10.18;;
23952;SDS011;12163;49.316;6.092;2022-10-29T06:20:31;31.52;;;10.93;;
23952;SDS011;12163;49.316;6.092;2022-10-29T06:22:58;24.70;;;9.45;;
23952;SDS011;12163;49.316;6.092;2022-10-29T06:25:25;26.45;;;10.07;;
23952;SDS011;12163;49.316;6.092;2022-10-29T06:27:59;32.00;;;10.48;;
23952;SDS011;12163;49.316;6.092;2022-10-29T06:30:28;30.38;;;10.70;;
23952;SDS011;12163;49.316;6.092;2022-10-29T06:32:56;26.77;;;10.45;;
23952;SDS011;12163;49.316;6.092;2022-10-29T06:35:23;26.25;;;9.98;;
23952;SDS011;12163;49.316;6.092;2022-10-29T06:37:50;30.17;;;10.32;;
23952;SDS011;12163;49.316;6.092;2022-10-29T06:40:17;26.25;;;9.65;;
23952;SDS011;12163;49.316;6.092;2022-10-29T06:42:43;31.90;;;9.98;;
23952;SDS011;12163;49.316;6.092;2022-10-29T06:45:10;23.83;;;9.10;;
23952;SDS011;12163;49.316;6.092;2022-10-29T06:47:40;28.35;;;11.05;;
23952;SDS011;12163;49.316;6.092;2022-10-29T06:50:09;25.55;;;9.02;;
23952;SDS011;12163;49.316;6.092;2022-10-29T06:52:37;20.25;;;8.90;;
23952;SDS011;12163;49.316;6.092;2022-10-29T06:55:04;25.92;;;8.77;;
23952;SDS011;12163;49.316;6.092;2022-10-29T06:57:31;24.08;;;9.82;;
23952;SDS011;12163;49.316;6.092;2022-10-29T06:59:58;29.45;;;8.55;;
23952;SDS011;12163;49.316;6.092;2022-10-29T07:02:32;30.23;;;10.98;;
23952;SDS011;12163;49.316;6.092;2022-10-29T07:04:59;28.13;;;9.95;;
23952;SDS011;12163;49.316;6.092;2022-10-29T07:07:26;28.80;;;10.27;;
23952;SDS011;12163;49.316;6.092;2022-10-29T07:09:53;30.77;;;9.57;;
23952;SDS011;12163;49.316;6.092;2022-10-29T07:12:20;24.60;;;11.00;;
23952;SDS011;12163;49.316;6.092;2022-10-29T07:14:46;28.30;;;9.07;;
23952;SDS011;12163;49.316;6.092;2022-10-29T07:17:13;28.83;;;10.20;;
23952;SDS011;12163;49.316;6.092;2022-10-29T07:19:40;25.75;;;9.95;;
23952;SDS011;12163;49.316;6.092;2022-10-29T07:22:06;28.60;;;10.07;;
23952;SDS011;12163;49.316;6.092;2022-10-29T07:24:33;32.92;;;9.55;;
23952;SDS011;12163;49.316;6.092;2022-10-29T07:26:59;30.88;;;9.63;;
23952;SDS011;12163;49.316;6.092;2022-10-29T07:29:27;33.03;;;10.20;;
23952;SDS011;12163;49.316;6.092;2022-10-29T07:31:53;31.45;;;11.07;;
23952;SDS011;12163;49.316;6.092;2022-10-29T07:34:20;38.53;;;10.90;;
23952;SDS011;12163;49.316;6.092;2022-10-29T07:36:46;33.15;;;10.60;;
23952;SDS011;12163;49.316;6.092;2022-10-29T07:39:13;24.85;;;10.20;;
23952;SDS011;12163;49.316;6.092;2022-10-29T07:41:39;32.35;;;10.43;;
23952;SDS011;12163;49.316;6.092;2022-10-29T07:44:06;31.10;;;10.95;;
23952;SDS011;12163;49.316;6.092;2022-10-29T07:46:32;36.72;;;11.20;;
23952;SDS011;12163;49.316;6.092;2022-10-29T07:48:59;35.40;;;11.07;;
23952;SDS011;12163;49.316;6.092;2022-10-29T07:51:25;26.75;;;10.07;;
23952;SDS011;12163;49.316;6.092;2022-10-29T07:53:52;24.70;;;10.18;;
23952;SDS011;12163;49.316;6.092;2022-10-29T07:56:19;24.52;;;9.05;;
23952;SDS011;12163;49.316;6.092;2022-10-29T07:58:45;27.73;;;9.65;;
23952;SDS011;12163;49.316;6.092;2022-10-29T08:01:12;28.70;;;11.32;;
23952;SDS011;12163;49.316;6.092;2022-10-29T08:03:39;27.40;;;9.55;;
23952;SDS011;12163;49.316;6.092;2022-10-29T08:06:05;23.70;;;9.25;;
23952;SDS011;12163;49.316;6.092;2022-10-29T08:08:32;32.33;;;10.00;;
23952;SDS011;12163;49.316;6.092;2022-10-29T08:11:00;28.65;;;10.00;;
23952;SDS011;12163;49.316;6.092;2022-10-29T08:13:28;35.85;;;10.48;;
23952;SDS011;12163;49.316;6.092;2022-10-29T08:15:55;30.92;;;10.73;;
23952;SDS011;12163;49.316;6.092;2022-10-29T08:18:22;33.70;;;10.70;;
23952;SDS011;12163;49.316;6.092;2022-10-29T08:20:48;26.38;;;9.55;;
23952;SDS011;12163;49.316;6.092;2022-10-29T08:23:15;28.90;;;10.13;;
23952;SDS011;12163;49.316;6.092;2022-10-29T08:25:42;29.38;;;10.52;;
23952;SDS011;12163;49.316;6.092;2022-10-29T08:28:10;36.72;;;9.50;;
23952;SDS011;12163;49.316;6.092;2022-10-29T08:30:39;26.63;;;9.40;;
23952;SDS011;12163;49.316;6.092;2022-10-29T08:33:06;27.58;;;9.05;;
23952;SDS011;12163;49.316;6.092;2022-10-29T08:35:34;28.42;;;8.73;;
23952;SDS011;12163;49.316;6.092;2022-10-29T08:38:01;23.38;;;9.23;;
23952;SDS011;12163;49.316;6.092;2022-10-29T08:45:46;25.20;;;9.65;;
23952;SDS011;12163;49.316;6.092;2022-10-29T08:48:18;25.83;;;9.82;;
23952;SDS011;12163;49.316;6.092;2022-10-29T08:51:02;25.17;;;8.48;;
23952;SDS011;12163;49.316;6.092;2022-10-29T08:53:35;33.92;;;10.20;;
23952;SDS011;12163;49.316;6.092;2022-10-29T08:56:17;26.55;;;9.48;;
23952;SDS011;12163;49.316;6.092;2022-10-29T09:01:31;32.03;;;9.68;;
23952;SDS011;12163;49.316;6.092;2022-10-29T09:03:58;28.15;;;9.63;;
23952;SDS011;12163;49.316;6.092;2022-10-29T09:09:19;24.92;;;8.35;;
23952;SDS011;12163;49.316;6.092;2022-10-29T09:11:59;22.27;;;8.25;;
23952;SDS011;12163;49.316;6.092;2022-10-29T09:14:32;21.83;;;8.38;;
23952;SDS011;12163;49.316;6.092;2022-10-29T09:20:07;20.60;;;8.07;;
23952;SDS011;12163;49.316;6.092;2022-10-29T09:25:19;25.98;;;8.35;;
23952;SDS011;12163;49.316;6.092;2022-10-29T09:33:52;19.20;;;8.52;;
23952;SDS011;12163;49.316;6.092;2022-10-29T09:36:27;20.58;;;7.68;;
23952;SDS011;12163;49.316;6.092;2022-10-29T09:38:56;24.13;;;7.75;;
23952;SDS011;12163;49.316;6.092;2022-10-29T09:41:31;21.65;;;7.88;;
23952;SDS011;12163;49.316;6.092;2022-10-29T09:44:04;20.77;;;8.35;;
23952;SDS011;12163;49.316;6.092;2022-10-29T09:52:16;26.08;;;7.75;;
23952;SDS011;12163;49.316;6.092;2022-10-29T09:54:47;18.40;;;7.20;;
23952;SDS011;12163;49.316;6.092;2022-10-29T09:57:18;18.90;;;8.10;;
23952;SDS011;12163;49.316;6.092;2022-10-29T09:59:48;23.08;;;8.00;;
23952;SDS011;12163;49.316;6.092;2022-10-29T10:04:54;19.48;;;7.50;;
23952;SDS011;12163;49.316;6.092;2022-10-29T10:07:25;26.73;;;7.72;;
23952;SDS011;12163;49.316;6.092;2022-10-29T10:09:59;25.45;;;7.25;;
23952;SDS011;12163;49.316;6.092;2022-10-29T10:23:16;21.48;;;7.13;;
23952;SDS011;12163;49.316;6.092;2022-10-29T10:25:56;25.05;;;7.07;;
23952;SDS011;12163;49.316;6.092;2022-10-29T10:28:30;18.77;;;7.32;;
23952;SDS011;12163;49.316;6.092;2022-10-29T10:31:09;22.40;;;7.22;;
23952;SDS011;12163;49.316;6.092;2022-10-29T10:33:47;23.50;;;7.35;;
23952;SDS011;12163;49.316;6.092;2022-10-29T10:36:28;21.23;;;7.10;;
23952;SDS011;12163;49.316;6.092;2022-10-29T10:38:56;19.80;;;6.47;;
23952;SDS011;12163;49.316;6.092;2022-10-29T10:41:29;17.88;;;6.40;;
23952;SDS011;12163;49.316;6.092;2022-10-29T10:44:00;16.98;;;6.30;;
23952;SDS011;12163;49.316;6.092;2022-10-29T10:46:30;23.23;;;6.70;;
23952;SDS011;12163;49.316;6.092;2022-10-29T10:49:12;14.82;;;6.57;;
23952;SDS011;12163;49.316;6.092;2022-10-29T10:51:43;21.13;;;6.43;;
23952;SDS011;12163;49.316;6.092;2022-10-29T10:57:03;19.98;;;6.82;;
23952;SDS011;12163;49.316;6.092;2022-10-29T11:05:22;22.08;;;5.97;;
23952;SDS011;12163;49.316;6.092;2022-10-29T11:07:59;15.65;;;6.15;;
23952;SDS011;12163;49.316;6.092;2022-10-29T11:10:33;20.42;;;5.82;;
23952;SDS011;12163;49.316;6.092;2022-10-29T11:13:05;16.42;;;6.00;;
23952;SDS011;12163;49.316;6.092;2022-10-29T11:15:44;12.73;;;5.22;;
23952;SDS011;12163;49.316;6.092;2022-10-29T11:18:17;16.70;;;4.97;;
23952;SDS011;12163;49.316;6.092;2022-10-29T11:20:53;14.68;;;5.10;;
23952;SDS011;12163;49.316;6.092;2022-10-29T11:23:26;17.08;;;5.13;;
23952;SDS011;12163;49.316;6.092;2022-10-29T11:28:54;17.38;;;5.30;;
23952;SDS011;12163;49.316;6.092;2022-10-29T11:31:46;14.25;;;5.05;;
23952;SDS011;12163;49.316;6.092;2022-10-29T11:34:24;15.77;;;4.88;;
23952;SDS011;12163;49.316;6.092;2022-10-29T11:37:23;21.05;;;5.78;;
23952;SDS011;12163;49.316;6.092;2022-10-29T11:39:58;14.80;;;4.93;;
23952;SDS011;12163;49.316;6.092;2022-10-29T11:42:29;18.30;;;5.38;;
23952;SDS011;12163;49.316;6.092;2022-10-29T11:44:57;16.08;;;5.50;;
23952;SDS011;12163;49.316;6.092;2022-10-29T11:58:57;20.60;;;5.93;;
23952;SDS011;12163;49.316;6.092;2022-10-29T12:18:50;25.98;;;7.07;;
23952;SDS011;12163;49.316;6.092;2022-10-29T12:29:44;18.05;;;5.75;;
23952;SDS011;12163;49.316;6.092;2022-10-29T12:40:33;19.65;;;5.45;;
23952;SDS011;12163;49.316;6.092;2022-10-29T12:43:04;22.92;;;5.72;;
23952;SDS011;12163;49.316;6.092;2022-10-29T12:45:43;19.17;;;6.03;;
23952;SDS011;12163;49.316;6.092;2022-10-29T12:59:42;17.65;;;5.13;;
23952;SDS011;12163;49.316;6.092;2022-10-29T13:07:32;21.42;;;5.55;;
23952;SDS011;12163;49.316;6.092;2022-10-29T13:12:52;20.05;;;5.57;;
23952;SDS011;12163;49.316;6.092;2022-10-29T13:15:39;16.77;;;5.45;;
23952;SDS011;12163;49.316;6.092;2022-10-29T13:24:23;17.55;;;5.65;;
23952;SDS011;12163;49.316;6.092;2022-10-29T13:27:02;15.35;;;5.45;;
23952;SDS011;12163;49.316;6.092;2022-10-29T13:29:44;17.77;;;5.47;;
23952;SDS011;12163;49.316;6.092;2022-10-29T13:32:32;13.57;;;5.57;;
23952;SDS011;12163;49.316;6.092;2022-10-29T13:35:00;15.82;;;5.25;;
23952;SDS011;12163;49.316;6.092;2022-10-29T13:37:48;16.67;;;5.47;;
23952;SDS011;12163;49.316;6.092;2022-10-29T13:45:25;15.73;;;5.10;;
23952;SDS011;12163;49.316;6.092;2022-10-29T13:47:53;22.55;;;6.60;;
23952;SDS011;12163;49.316;6.092;2022-10-29T13:50:25;18.35;;;6.43;;
23952;SDS011;12163;49.316;6.092;2022-10-29T13:52:52;18.10;;;6.72;;
23952;SDS011;12163;49.316;6.092;2022-10-29T13:55:23;16.47;;;6.83;;
23952;SDS011;12163;49.316;6.092;2022-10-29T14:01:01;18.67;;;6.10;;
23952;SDS011;12163;49.316;6.092;2022-10-29T14:03:37;20.83;;;5.60;;
23952;SDS011;12163;49.316;6.092;2022-10-29T14:06:19;21.30;;;5.18;;
23952;SDS011;12163;49.316;6.092;2022-10-29T14:11:42;16.17;;;5.70;;
23952;SDS011;12163;49.316;6.092;2022-10-29T14:17:16;12.30;;;5.25;;
23952;SDS011;12163;49.316;6.092;2022-10-29T14:19:44;18.58;;;5.25;;
23952;SDS011;12163;49.316;6.092;2022-10-29T14:24:45;19.58;;;6.05;;
23952;SDS011;12163;49.316;6.092;2022-10-29T14:27:12;17.02;;;5.80;;
23952;SDS011;12163;49.316;6.092;2022-10-29T14:29:42;17.58;;;6.38;;
23952;SDS011;12163;49.316;6.092;2022-10-29T14:32:15;17.25;;;5.80;;
23952;SDS011;12163;49.316;6.092;2022-10-29T14:34:47;21.15;;;6.18;;
23952;SDS011;12163;49.316;6.092;2022-10-29T14:37:26;12.68;;;5.47;;
23952;SDS011;12163;49.316;6.092;2022-10-29T14:39:56;21.83;;;6.40;;
23952;SDS011;12163;49.316;6.092;2022-10-29T14:45:24;18.60;;;5.53;;
23952;SDS011;12163;49.316;6.092;2022-10-29T14:47:51;18.13;;;5.97;;
23952;SDS011;12163;49.316;6.092;2022-10-29T14:50:24;18.80;;;5.38;;
23952;SDS011;12163;49.316;6.092;2022-10-29T14:52:53;15.35;;;5.05;;
23952;SDS011;12163;49.316;6.092;2022-10-29T14:55:36;18.00;;;5.25;;
23952;SDS011;12163;49.316;6.092;2022-10-29T14:58:25;20.25;;;5.70;;
23952;SDS011;12163;49.316;6.092;2022-10-29T15:01:01;28.45;;;5.93;;
23952;SDS011;12163;49.316;6.092;2022-10-29T15:03:33;20.38;;;5.32;;
23952;SDS011;12163;49.316;6.092;2022-10-29T15:08:42;13.60;;;5.28;;
23952;SDS011;12163;49.316;6.092;2022-10-29T15:13:56;20.20;;;6.00;;
23952;SDS011;12163;49.316;6.092;2022-10-29T15:16:23;17.95;;;6.07;;
23952;SDS011;12163;49.316;6.092;2022-10-29T15:18:50;19.98;;;5.93;;
23952;SDS011;12163;49.316;6.092;2022-10-29T15:21:28;19.25;;;5.60;;
23952;SDS011;12163;49.316;6.092;2022-10-29T15:24:03;20.58;;;6.10;;
23952;SDS011;12163;49.316;6.092;2022-10-29T15:26:35;24.20;;;7.18;;
23952;SDS011;12163;49.316;6.092;2022-10-29T15:29:10;28.65;;;6.57;;
23952;SDS011;12163;49.316;6.092;2022-10-29T15:31:44;21.77;;;5.85;;
23952;SDS011;12163;49.316;6.092;2022-10-29T15:34:16;18.55;;;5.93;;
23952;SDS011;12163;49.316;6.092;2022-10-29T15:36:49;18.88;;;6.10;;
23952;SDS011;12163;49.316;6.092;2022-10-29T15:41:55;21.00;;;5.88;;
23952;SDS011;12163;49.316;6.092;2022-10-29T15:44:28;18.00;;;5.30;;
23952;SDS011;12163;49.316;6.092;2022-10-29T15:46:58;21.05;;;6.05;;
23952;SDS011;12163;49.316;6.092;2022-10-29T15:49:26;24.65;;;5.40;;
23952;SDS011;12163;49.316;6.092;2022-10-29T15:54:26;24.10;;;5.63;;
23952;SDS011;12163;49.316;6.092;2022-10-29T15:56:53;19.60;;;5.28;;
23952;SDS011;12163;49.316;6.092;2022-10-29T15:59:21;14.75;;;4.80;;
23952;SDS011;12163;49.316;6.092;2022-10-29T16:01:49;20.55;;;5.53;;
23952;SDS011;12163;49.316;6.092;2022-10-29T16:04:16;19.52;;;5.90;;
23952;SDS011;12163;49.316;6.092;2022-10-29T16:06:43;24.75;;;5.70;;
23952;SDS011;12163;49.316;6.092;2022-10-29T16:09:14;13.88;;;5.18;;
23952;SDS011;12163;49.316;6.092;2022-10-29T16:11:43;17.73;;;6.18;;
23952;SDS011;12163;49.316;6.092;2022-10-29T16:14:09;15.18;;;6.25;;
23952;SDS011;12163;49.316;6.092;2022-10-29T16:16:36;65.22;;;35.03;;
23952;SDS011;12163;49.316;6.092;2022-10-29T16:19:03;55.97;;;28.75;;
23952;SDS011;12163;49.316;6.092;2022-10-29T16:21:29;69.03;;;39.40;;
23952;SDS011;12163;49.316;6.092;2022-10-29T16:23:56;25.63;;;12.63;;
23952;SDS011;12163;49.316;6.092;2022-10-29T16:26:23;21.33;;;7.40;;
23952;SDS011;12163;49.316;6.092;2022-10-29T16:28:51;23.10;;;6.55;;
23952;SDS011;12163;49.316;6.092;2022-10-29T16:31:25;19.77;;;5.93;;
23952;SDS011;12163;49.316;6.092;2022-10-29T16:33:54;18.75;;;5.57;;
23952;SDS011;12163;49.316;6.092;2022-10-29T16:36:24;21.00;;;5.95;;
23952;SDS011;12163;49.316;6.092;2022-10-29T16:38:50;18.60;;;6.35;;
23952;SDS011;12163;49.316;6.092;2022-10-29T16:41:18;18.38;;;5.47;;
23952;SDS011;12163;49.316;6.092;2022-10-29T16:43:45;19.83;;;5.80;;
23952;SDS011;12163;49.316;6.092;2022-10-29T16:46:12;16.45;;;6.18;;
23952;SDS011;12163;49.316;6.092;2022-10-29T16:48:40;12.52;;;6.22;;
23952;SDS011;12163;49.316;6.092;2022-10-29T16:51:06;15.70;;;7.10;;
23952;SDS011;12163;49.316;6.092;2022-10-29T16:53:33;20.77;;;7.20;;
23952;SDS011;12163;49.316;6.092;2022-10-29T16:56:00;21.05;;;5.97;;
23952;SDS011;12163;49.316;6.092;2022-10-29T16:58:27;17.35;;;6.20;;
23952;SDS011;12163;49.316;6.092;2022-10-29T17:01:03;19.02;;;6.65;;
23952;SDS011;12163;49.316;6.092;2022-10-29T17:03:32;22.35;;;6.45;;
23952;SDS011;12163;49.316;6.092;2022-10-29T17:06:03;16.45;;;6.40;;
23952;SDS011;12163;49.316;6.092;2022-10-29T17:08:31;23.65;;;6.22;;
23952;SDS011;12163;49.316;6.092;2022-10-29T17:10:59;15.50;;;6.28;;
23952;SDS011;12163;49.316;6.092;2022-10-29T17:13:27;24.52;;;6.30;;
23952;SDS011;12163;49.316;6.092;2022-10-29T17:15:53;14.20;;;5.88;;
23952;SDS011;12163;49.316;6.092;2022-10-29T17:18:20;13.20;;;7.00;;
23952;SDS011;12163;49.316;6.092;2022-10-29T17:20:57;20.17;;;8.02;;
23952;SDS011;12163;49.316;6.092;2022-10-29T17:23:25;24.60;;;7.63;;
23952;SDS011;12163;49.316;6.092;2022-10-29T17:25:53;21.60;;;7.55;;
23952;SDS011;12163;49.316;6.092;2022-10-29T17:28:21;21.77;;;7.13;;
23952;SDS011;12163;49.316;6.092;2022-10-29T17:30:50;28.98;;;8.57;;
23952;SDS011;12163;49.316;6.092;2022-10-29T17:33:17;28.65;;;9.68;;
23952;SDS011;12163;49.316;6.092;2022-10-29T17:35:44;32.80;;;11.07;;
23952;SDS011;12163;49.316;6.092;2022-10-29T17:38:11;30.60;;;9.75;;
23952;SDS011;12163;49.316;6.092;2022-10-29T17:40:37;27.75;;;12.65;;
23952;SDS011;12163;49.316;6.092;2022-10-29T17:43:04;33.42;;;13.00;;
23952;SDS011;12163;49.316;6.092;2022-10-29T17:45:31;24.02;;;10.43;;
23952;SDS011;12163;49.316;6.092;2022-10-29T17:47:57;24.40;;;8.75;;
23952;SDS011;12163;49.316;6.092;2022-10-29T17:50:25;26.58;;;9.73;;
23952;SDS011;12163;49.316;6.092;2022-10-29T17:52:52;30.92;;;11.65;;
23952;SDS011;12163;49.316;6.092;2022-10-29T17:55:19;26.70;;;9.80;;
23952;SDS011;12163;49.316;6.092;2022-10-29T17:57:46;26.80;;;9.63;;